< < Back
Terminal Aerodrome Forecast


Current Version              Previous Versions:   1  2  3  4  5  6  7  8  9  

Terminal Aerodrome Forecast

543
FTUS44 KMRX 251120
TAFCHA
TAF
KCHA 251120Z 2512/2612 00000KT 6SM BR SCT070 BKN250
     FM251400 36004KT P6SM SCT150
     FM260100 00000KT P6SM BKN250=



Latest METAR

614
SAUS80 KWBC 261700
MTRCHA
METAR KCHA 261653Z 16006KT 10SM SCT047 SCT085 SCT150 32/20 A3015 RMK AO2
SLP201 T03220200


USA.gov is the U.S. government's official web portal to all federal, state and local government web resources and services.